Aérodrome :
LOGIN :

S'inscrire | Disclaimer

   EN    FR    IT 

 










Légende :    VFR   VFR Marginal   IFR   IFR Intensif   IFR Très Intensif
Visi : 
Plafond : 
>= 8 km
>= 3000ft
5 à 8 km
1000 à 3000 ft
1500m à 5 km
500 à 1000 ft
800 à 1500m
200 à 500 ft
< 800m
< 200 ft
Symboles :   Orages  Brouillard  Fortes neiges  Fortes précipitations  Vent > 20 kt
SIGMETs :   Divers  Orages  Givrage  Turbulence  Onde Orograph.  Cendres Volcan.







- Altitude de l'aérodrome : 204 ft
- Code IATA : AGF
- Voir les cartes d'approche


LFBA - Agen

DERNIER METAR :
  • 181500Z AUTO 09009KT 060V120 CAVOK 33/16 Q1008 NOSIG

METARs EXPIRÉS :
  • 181430Z AUTO 10007KT 070V140 CAVOK 32/17 Q1008 NOSIG
  • 181400Z AUTO 09007KT 050V140 CAVOK 32/16 Q1009 NOSIG
  • 181330Z AUTO 11008KT 080V160 CAVOK 31/17 Q1009 NOSIG
  • 181300Z AUTO 09007KT 060V120 CAVOK 31/17 Q1009 NOSIG
  • 181230Z AUTO 08008KT 050V110 CAVOK 30/17 Q1010 NOSIG

TAF TAF LFBA
Valide du 18 à 15h jusqu'au 19 à 00h UTC


181400Z 1815/1824 13007KT CAVOK
PROB30
TEMPO 1819/1824 SHRA SCT050TCU
PROB30
TEMPO 1819/1821 14015G35KT 4000 TSRA BKN010 BKN040CB
Pas de NOTAMs connus pour ce terrain.



MET'MAP, la Météo Aéronautique d'un coup d'oeil ! - Copyright ORBIFLY Décembre 2007 - Disclaimer

ORBIFLY MET'MAP TEAM :

Programmation & Développement : Alexandra Zaïnal
Conception & Développement : Baudouin d'Aumeries
Co-Programmation & Développement : Marc-Olivier Méhu
Soutien technique & logistique : Manuel Goepfert

Contact : metmap@orbifly.com




SOURCES & CREDITS :

   NOAA